createdAt,value
2022-11-27T00:01:27.553Z,4.63
2022-11-27T00:03:55.755Z,4.69
2022-11-27T00:06:25.140Z,4.70
2022-11-27T00:08:52.409Z,4.59
2022-11-27T00:11:24.623Z,4.64
2022-11-27T00:13:52.062Z,4.49
2022-11-27T00:16:20.709Z,4.64
2022-11-27T00:18:48.788Z,4.63
2022-11-27T00:21:24.291Z,4.64
2022-11-27T00:23:53.208Z,4.65
2022-11-27T00:26:21.152Z,4.60
2022-11-27T00:28:48.515Z,4.61
2022-11-27T00:31:19.273Z,4.60
2022-11-27T00:33:46.663Z,4.35
2022-11-27T00:36:15.334Z,4.49
2022-11-27T00:38:42.473Z,4.55
2022-11-27T00:41:11.886Z,4.53
2022-11-27T00:43:44.444Z,4.46
2022-11-27T00:46:17.120Z,4.43
2022-11-27T00:48:45.052Z,4.40
2022-11-27T00:51:15.263Z,3.96
2022-11-27T00:53:42.768Z,4.33
2022-11-27T00:56:14.958Z,4.06
2022-11-27T00:58:48.269Z,4.30
2022-11-27T01:01:19.113Z,4.37
2022-11-27T01:03:47.189Z,4.41
2022-11-27T01:06:14.724Z,4.39
2022-11-27T01:08:42.149Z,4.36
2022-11-27T01:11:20.749Z,3.93
2022-11-27T01:13:48.545Z,4.36
2022-11-27T01:16:18.929Z,4.33
2022-11-27T01:18:47.871Z,4.32
2022-11-27T01:21:18.160Z,4.33
2022-11-27T01:23:45.740Z,4.03
2022-11-27T01:26:13.071Z,3.94
2022-11-27T01:28:40.986Z,4.33
2022-11-27T01:31:12.508Z,4.34
2022-11-27T01:33:39.803Z,4.27
2022-11-27T01:36:08.259Z,4.25
2022-11-27T01:38:35.694Z,4.26
2022-11-27T01:41:08.740Z,4.23
2022-11-27T01:44:20.753Z,4.17
2022-11-27T01:46:50.564Z,4.05
2022-11-27T01:49:32.440Z,4.01
2022-11-27T01:52:04.656Z,3.97
2022-11-27T01:54:37.351Z,3.89
2022-11-27T01:57:17.905Z,4.02
2022-11-27T01:59:46.492Z,4.01
2022-11-27T02:02:13.729Z,3.57
2022-11-27T02:04:41.076Z,4.02
2022-11-27T02:07:08.270Z,4.00
2022-11-27T02:09:35.482Z,3.93
2022-11-27T02:12:16.036Z,3.86
2022-11-27T02:14:52.012Z,3.85
2022-11-27T02:17:30.974Z,3.85
2022-11-27T02:20:25.797Z,3.90
2022-11-27T02:23:14.265Z,3.92
2022-11-27T02:25:59.950Z,3.86
2022-11-27T02:28:43.047Z,3.83
2022-11-27T02:31:22.250Z,3.78
2022-11-27T02:33:53.920Z,3.54
2022-11-27T02:36:26.510Z,3.73
2022-11-27T02:38:55.711Z,3.70
2022-11-27T02:41:29.238Z,3.51
2022-11-27T02:43:58.292Z,3.67
2022-11-27T02:46:27.639Z,3.39
2022-11-27T02:48:58.857Z,3.65
2022-11-27T02:51:33.546Z,3.54
2022-11-27T02:54:04.497Z,3.53
2022-11-27T02:56:34.527Z,3.09
2022-11-27T02:59:06.326Z,3.47
2022-11-27T03:01:39.039Z,3.47
2022-11-27T03:04:08.280Z,3.44
2022-11-27T03:06:43.931Z,3.45
2022-11-27T03:09:21.521Z,3.46
2022-11-27T03:11:48.930Z,3.43
2022-11-27T03:14:16.890Z,3.44
2022-11-27T03:16:48.274Z,3.42
2022-11-27T03:19:25.915Z,3.41
2022-11-27T03:21:55.814Z,3.39
2022-11-27T03:24:23.609Z,3.25
2022-11-27T03:26:51.271Z,3.34
2022-11-27T03:29:23.613Z,3.35
2022-11-27T03:31:51.476Z,3.34
2022-11-27T03:34:18.939Z,3.29
2022-11-27T03:36:46.366Z,3.28
2022-11-27T03:39:13.964Z,3.24
2022-11-27T03:41:59.812Z,3.28
2022-11-27T03:44:44.745Z,3.29
2022-11-27T03:47:55.303Z,3.28
2022-11-27T03:50:31.244Z,3.29
2022-11-27T03:53:09.317Z,3.26
2022-11-27T03:56:06.806Z,3.24
2022-11-27T03:58:43.149Z,3.20
2022-11-27T04:01:16.110Z,3.22
2022-11-27T04:03:43.405Z,3.22
2022-11-27T04:06:11.658Z,3.20
2022-11-27T04:08:39.316Z,3.19
2022-11-27T04:11:06.382Z,3.18
2022-11-27T04:13:33.392Z,3.19
2022-11-27T04:16:01.963Z,3.15
2022-11-27T04:18:29.825Z,3.20
2022-11-27T04:20:56.890Z,3.20
2022-11-27T04:23:23.942Z,3.18
2022-11-27T04:25:51.131Z,3.22
2022-11-27T04:28:18.219Z,3.20
2022-11-27T04:30:50.243Z,2.98
2022-11-27T04:33:17.266Z,3.20
2022-11-27T04:35:44.300Z,3.19
2022-11-27T04:38:11.360Z,3.25
2022-11-27T04:40:38.517Z,3.27
2022-11-27T04:43:05.495Z,3.18
2022-11-27T04:45:32.501Z,3.31
2022-11-27T04:47:59.754Z,3.08
2022-11-27T04:50:26.808Z,3.06
2022-11-27T04:52:53.928Z,3.18
2022-11-27T04:55:20.939Z,3.41
2022-11-27T04:57:47.921Z,3.50
2022-11-27T05:00:15.521Z,3.51
2022-11-27T05:02:42.559Z,3.53
2022-11-27T05:05:09.899Z,3.59
2022-11-27T05:07:37.214Z,3.53
2022-11-27T05:10:05.959Z,3.61
2022-11-27T05:12:33.026Z,3.62
2022-11-27T05:15:04.186Z,3.67
2022-11-27T05:17:31.846Z,3.69
2022-11-27T05:19:59.269Z,3.71
2022-11-27T05:22:26.249Z,3.74
2022-11-27T05:24:53.253Z,3.79
2022-11-27T05:27:20.251Z,3.81
2022-11-27T05:29:47.239Z,3.76
2022-11-27T05:32:14.206Z,3.74
2022-11-27T05:34:41.459Z,3.74
2022-11-27T05:37:08.673Z,3.80
2022-11-27T05:39:35.671Z,3.77
2022-11-27T05:42:02.665Z,3.81
2022-11-27T05:44:29.770Z,3.61
2022-11-27T05:46:57.156Z,3.84
2022-11-27T05:49:24.255Z,3.91
2022-11-27T05:51:51.896Z,3.96
2022-11-27T05:54:19.141Z,4.01
2022-11-27T05:56:46.144Z,3.81
2022-11-27T05:59:14.450Z,3.88
2022-11-27T06:01:41.476Z,4.08
2022-11-27T06:04:08.557Z,3.98
2022-11-27T06:06:35.590Z,3.68
2022-11-27T06:09:04.045Z,4.14
2022-11-27T06:11:32.700Z,4.12
2022-11-27T06:13:59.761Z,4.00
2022-11-27T06:16:26.800Z,4.10
2022-11-27T06:18:55.383Z,4.09
2022-11-27T06:21:24.102Z,4.11
2022-11-27T06:23:55.376Z,4.10
2022-11-27T06:26:25.668Z,4.15
2022-11-27T06:28:54.206Z,4.20
2022-11-27T06:31:23.619Z,4.22
2022-11-27T06:33:52.952Z,4.28
2022-11-27T06:36:21.543Z,4.30
2022-11-27T06:38:48.575Z,4.29
2022-11-27T06:41:18.220Z,4.27
2022-11-27T06:43:45.374Z,4.02
2022-11-27T06:46:16.008Z,4.32
2022-11-27T06:48:44.533Z,4.41
2022-11-27T06:51:14.098Z,4.42
2022-11-27T06:53:41.972Z,4.41
2022-11-27T06:56:14.323Z,4.43
2022-11-27T06:58:42.382Z,4.41
2022-11-27T07:01:13.395Z,4.44
2022-11-27T07:03:40.656Z,4.42
2022-11-27T07:06:10.346Z,4.38
2022-11-27T07:08:38.420Z,4.40
2022-11-27T07:11:08.466Z,4.39
2022-11-27T07:13:35.472Z,4.38
2022-11-27T07:16:05.713Z,4.27
2022-11-27T07:18:37.973Z,4.43
2022-11-27T07:21:05.361Z,4.14
2022-11-27T07:23:32.473Z,4.42
2022-11-27T07:26:04.395Z,4.25
2022-11-27T07:28:31.377Z,4.50
2022-11-27T07:30:58.989Z,4.56
2022-11-27T07:33:26.465Z,4.60
2022-11-27T07:36:03.354Z,4.61
2022-11-27T07:38:30.452Z,4.64
2022-11-27T07:41:01.711Z,4.72
2022-11-27T07:43:29.767Z,4.29
2022-11-27T07:45:57.217Z,4.76
2022-11-27T07:48:24.704Z,4.79
2022-11-27T07:50:51.698Z,4.78
2022-11-27T07:53:18.711Z,4.85
2022-11-27T07:55:45.733Z,4.88
2022-11-27T07:58:12.855Z,4.95
2022-11-27T08:00:40.003Z,5.02
2022-11-27T08:03:07.165Z,5.06
2022-11-27T08:05:35.544Z,4.89
2022-11-27T08:08:04.229Z,5.35
2022-11-27T08:10:34.888Z,5.49
2022-11-27T08:13:02.080Z,5.61
2022-11-27T08:15:29.191Z,5.82
2022-11-27T08:17:56.267Z,5.89
2022-11-27T08:20:23.366Z,5.85
2022-11-27T08:22:50.475Z,5.85
2022-11-27T08:25:17.741Z,5.93
2022-11-27T08:27:44.765Z,5.61
2022-11-27T08:30:11.943Z,5.96
2022-11-27T08:32:39.708Z,5.94
2022-11-27T08:35:07.400Z,5.59
2022-11-27T08:37:35.476Z,5.77
2022-11-27T08:40:03.708Z,5.78
2022-11-27T08:42:30.891Z,5.83
2022-11-27T08:44:57.940Z,5.83
2022-11-27T08:47:24.959Z,5.90
2022-11-27T08:49:52.308Z,5.98
2022-11-27T08:52:20.478Z,6.00
2022-11-27T08:54:47.470Z,5.85
2022-11-27T08:57:16.264Z,5.93
2022-11-27T08:59:43.287Z,5.90
2022-11-27T09:02:13.244Z,5.82
2022-11-27T09:04:40.497Z,5.79
2022-11-27T09:07:07.679Z,5.75
2022-11-27T09:09:36.579Z,5.83
2022-11-27T09:12:03.804Z,5.91
2022-11-27T09:14:30.832Z,6.05
2022-11-27T09:16:58.043Z,6.06
2022-11-27T09:19:25.955Z,6.07
2022-11-27T09:21:53.043Z,6.29
2022-11-27T09:24:20.175Z,6.32
2022-11-27T09:26:47.168Z,6.47
2022-11-27T09:29:14.332Z,6.55
2022-11-27T09:31:41.410Z,6.67
2022-11-27T09:34:08.473Z,6.72
2022-11-27T09:36:35.800Z,6.68
2022-11-27T09:39:03.727Z,6.69
2022-11-27T09:41:44.259Z,6.70
2022-11-27T09:45:08.757Z,6.67
2022-11-27T09:47:52.847Z,6.65
2022-11-27T09:50:25.939Z,6.49
2022-11-27T09:53:05.812Z,6.58
2022-11-27T09:55:38.283Z,6.77
2022-11-27T09:58:29.594Z,6.70
2022-11-27T10:00:56.649Z,6.67
2022-11-27T10:03:27.123Z,6.60
2022-11-27T10:06:14.599Z,6.57
2022-11-27T10:09:07.576Z,6.60
2022-11-27T10:11:46.663Z,6.64
2022-11-27T10:14:44.435Z,6.83
2022-11-27T10:17:17.217Z,6.68
2022-11-27T10:20:13.745Z,6.86
2022-11-27T10:23:22.548Z,6.78
2022-11-27T10:25:58.739Z,6.78
2022-11-27T10:28:54.305Z,6.87
2022-11-27T10:31:30.342Z,7.03
2022-11-27T10:34:04.935Z,6.76
2022-11-27T10:36:41.344Z,6.97
2022-11-27T10:39:16.230Z,6.89
2022-11-27T10:42:03.459Z,6.94
2022-11-27T10:44:34.128Z,6.95
2022-11-27T10:47:07.945Z,6.84
2022-11-27T10:49:42.023Z,6.83
2022-11-27T10:52:13.425Z,6.51
2022-11-27T10:54:41.414Z,6.80
2022-11-27T10:57:34.397Z,6.93
2022-11-27T11:00:09.973Z,7.03
2022-11-27T11:02:38.813Z,7.15
2022-11-27T11:05:35.020Z,7.10
2022-11-27T11:08:14.544Z,7.01
2022-11-27T11:10:52.711Z,7.09
2022-11-27T11:13:27.712Z,6.77
2022-11-27T11:16:01.297Z,6.91
2022-11-27T11:18:31.718Z,6.90
2022-11-27T11:21:01.435Z,6.79
2022-11-27T11:23:38.298Z,6.76
2022-11-27T11:26:23.788Z,6.54
2022-11-27T11:28:54.132Z,6.72
2022-11-27T11:31:31.401Z,6.73
2022-11-27T11:34:02.745Z,6.88
2022-11-27T11:36:30.076Z,6.75
2022-11-27T11:38:57.857Z,7.13
2022-11-27T11:41:25.030Z,6.98
2022-11-27T11:44:01.651Z,7.09
2022-11-27T11:46:32.744Z,7.17
2022-11-27T11:49:26.344Z,7.28
2022-11-27T11:52:25.537Z,7.30
2022-11-27T11:55:22.490Z,7.32
2022-11-27T11:58:25.527Z,7.43
2022-11-27T12:01:26.770Z,7.37
2022-11-27T12:04:14.649Z,7.52
2022-11-27T12:06:53.515Z,7.61
2022-11-27T12:09:33.870Z,7.48
2022-11-27T12:12:43.497Z,7.48
2022-11-27T12:15:25.067Z,7.48
2022-11-27T12:18:01.444Z,7.37
2022-11-27T12:20:57.642Z,7.50
2022-11-27T12:23:49.685Z,7.57
2022-11-27T12:26:31.750Z,7.67
2022-11-27T12:29:16.616Z,7.58
2022-11-27T12:32:02.968Z,7.50
2022-11-27T12:34:45.593Z,7.57
2022-11-27T12:37:14.104Z,7.53
2022-11-27T12:40:02.785Z,7.57
2022-11-27T12:42:42.329Z,7.53
2022-11-27T12:45:12.070Z,7.62
2022-11-27T12:47:43.269Z,7.58
2022-11-27T12:50:27.272Z,7.64
2022-11-27T12:53:11.466Z,7.55
2022-11-27T12:55:43.133Z,7.57
2022-11-27T12:58:20.670Z,7.63
2022-11-27T13:00:49.673Z,7.27
2022-11-27T13:03:30.938Z,7.56
2022-11-27T13:06:08.417Z,7.40
2022-11-27T13:08:56.687Z,7.42
2022-11-27T13:11:32.608Z,7.42
2022-11-27T13:14:05.160Z,7.12
2022-11-27T13:16:38.143Z,7.52
2022-11-27T13:19:13.356Z,7.38
2022-11-27T13:21:42.911Z,7.38
2022-11-27T13:24:12.938Z,7.35
2022-11-27T13:27:09.593Z,7.30
2022-11-27T13:29:45.849Z,6.90
2022-11-27T13:32:24.947Z,7.24
2022-11-27T13:34:55.133Z,6.76
2022-11-27T13:37:36.627Z,7.11
2022-11-27T13:40:23.664Z,7.15
2022-11-27T13:42:56.552Z,6.65
2022-11-27T13:45:30.300Z,6.89
2022-11-27T13:48:00.102Z,6.98
2022-11-27T13:50:31.294Z,7.00
2022-11-27T13:53:05.700Z,6.99
2022-11-27T13:55:35.726Z,6.98
2022-11-27T13:58:04.508Z,6.97
2022-11-27T14:00:39.650Z,6.62
2022-11-27T14:03:10.557Z,6.90
2022-11-27T14:05:42.343Z,6.96
2022-11-27T14:08:33.459Z,6.94
2022-11-27T14:11:12.980Z,6.91
2022-11-27T14:13:45.222Z,6.98
2022-11-27T14:16:21.472Z,7.01
2022-11-27T14:18:53.496Z,7.02
2022-11-27T14:21:30.966Z,6.92
2022-11-27T14:23:58.089Z,6.98
2022-11-27T14:26:25.483Z,6.97
2022-11-27T14:28:55.192Z,6.98
2022-11-27T14:31:35.698Z,6.93
2022-11-27T14:34:23.398Z,6.82
2022-11-27T14:36:52.650Z,6.84
2022-11-27T14:39:25.453Z,6.82
2022-11-27T14:41:57.178Z,6.45
2022-11-27T14:44:24.355Z,6.88
2022-11-27T14:46:52.342Z,6.51
2022-11-27T14:49:21.140Z,6.83
2022-11-27T14:51:51.090Z,6.85
2022-11-27T14:54:26.924Z,6.89
2022-11-27T14:56:54.500Z,6.85
2022-11-27T14:59:23.549Z,6.93
2022-11-27T15:02:28.925Z,6.72
2022-11-27T15:05:04.262Z,6.76
2022-11-27T15:07:38.028Z,6.80
2022-11-27T15:10:32.074Z,6.80
2022-11-27T15:13:01.402Z,6.51
2022-11-27T15:15:33.739Z,6.92
2022-11-27T15:18:04.526Z,6.83
2022-11-27T15:20:39.485Z,6.78
2022-11-27T15:23:19.479Z,6.80
2022-11-27T15:25:50.540Z,6.71
2022-11-27T15:28:23.264Z,6.78
2022-11-27T15:30:51.056Z,6.70
2022-11-27T15:33:32.452Z,6.51
2022-11-27T15:36:16.800Z,6.69
2022-11-27T15:38:45.627Z,5.80
2022-11-27T15:41:23.508Z,6.65
2022-11-27T15:43:50.687Z,6.64
2022-11-27T15:46:34.392Z,6.56
2022-11-27T15:49:01.358Z,6.54
2022-11-27T15:51:29.066Z,6.56
2022-11-27T15:53:56.087Z,6.60
2022-11-27T15:56:23.187Z,6.57
2022-11-27T15:58:50.221Z,6.60
2022-11-27T16:01:17.249Z,6.56
2022-11-27T16:03:44.309Z,6.57
2022-11-27T16:06:11.372Z,6.53
2022-11-27T16:08:38.415Z,6.37
2022-11-27T16:11:08.996Z,6.57
2022-11-27T16:13:36.008Z,6.49
2022-11-27T16:16:04.588Z,6.56
2022-11-27T16:18:32.858Z,6.53
2022-11-27T16:21:04.393Z,6.46
2022-11-27T16:23:32.247Z,6.48
2022-11-27T16:25:59.815Z,6.42
2022-11-27T16:28:27.908Z,6.45
2022-11-27T16:30:56.814Z,6.47
2022-11-27T16:33:31.121Z,6.41
2022-11-27T16:36:06.901Z,6.43
2022-11-27T16:38:34.629Z,6.46
2022-11-27T16:41:04.768Z,6.33
2022-11-27T16:43:46.311Z,6.48
2022-11-27T16:46:16.064Z,6.42
2022-11-27T16:48:44.545Z,6.42
2022-11-27T16:51:14.165Z,6.41
2022-11-27T16:53:44.236Z,6.43
2022-11-27T16:56:13.619Z,6.35
2022-11-27T16:58:43.591Z,6.37
2022-11-27T17:01:13.240Z,6.29
2022-11-27T17:03:40.608Z,6.34
2022-11-27T17:06:10.060Z,5.86
2022-11-27T17:08:37.989Z,6.33
2022-11-27T17:11:13.631Z,6.34
2022-11-27T17:13:41.000Z,6.30
2022-11-27T17:16:08.833Z,6.29
2022-11-27T17:18:38.316Z,6.27
2022-11-27T17:21:11.922Z,5.96
2022-11-27T17:23:42.903Z,5.70
2022-11-27T17:26:11.928Z,6.29
2022-11-27T17:28:40.203Z,6.06
2022-11-27T17:31:12.181Z,6.37
2022-11-27T17:33:39.323Z,5.82
2022-11-27T17:36:06.982Z,6.32
2022-11-27T17:38:34.458Z,6.20
2022-11-27T17:41:03.482Z,6.34
2022-11-27T17:43:30.477Z,6.32
2022-11-27T17:45:58.372Z,6.35
2022-11-27T17:48:26.340Z,6.35
2022-11-27T17:50:54.343Z,6.29
2022-11-27T17:53:21.618Z,6.35
2022-11-27T17:55:49.533Z,6.05
2022-11-27T17:58:16.617Z,6.40
2022-11-27T18:00:45.602Z,6.15
2022-11-27T18:03:12.826Z,6.32
2022-11-27T18:05:40.180Z,6.18
2022-11-27T18:08:07.194Z,6.22
2022-11-27T18:10:34.544Z,6.26
2022-11-27T18:13:02.831Z,6.20
2022-11-27T18:15:31.037Z,6.26
2022-11-27T18:17:59.040Z,6.23
2022-11-27T18:20:26.420Z,6.24
2022-11-27T18:22:53.436Z,6.24
2022-11-27T18:25:20.499Z,5.95
2022-11-27T18:27:47.527Z,6.22
2022-11-27T18:30:14.809Z,6.28
2022-11-27T18:32:41.856Z,6.25
2022-11-27T18:35:10.686Z,6.23
2022-11-27T18:37:38.417Z,6.26
2022-11-27T18:40:07.049Z,6.17
2022-11-27T18:42:34.193Z,6.35
2022-11-27T18:45:01.546Z,6.31
2022-11-27T18:47:28.816Z,6.40
2022-11-27T18:49:58.622Z,6.34
2022-11-27T18:52:25.636Z,6.32
2022-11-27T18:54:53.173Z,6.29
2022-11-27T18:57:20.342Z,6.30
2022-11-27T18:59:48.716Z,6.29
2022-11-27T19:02:16.031Z,5.85
2022-11-27T19:04:44.704Z,6.28
2022-11-27T19:07:12.546Z,6.21
2022-11-27T19:09:40.062Z,5.91
2022-11-27T19:12:07.641Z,6.43
2022-11-27T19:14:34.699Z,6.35
2022-11-27T19:17:01.704Z,5.90
2022-11-27T19:22:19.883Z,6.40
2022-11-27T19:24:47.089Z,6.23
2022-11-27T19:27:14.434Z,6.32
2022-11-27T19:29:41.745Z,6.34
2022-11-27T19:32:09.842Z,6.32
2022-11-27T19:34:36.854Z,6.30
2022-11-27T19:37:03.957Z,6.22
2022-11-27T19:39:31.529Z,6.24
2022-11-27T19:41:58.663Z,6.12
2022-11-27T19:44:26.195Z,6.03
2022-11-27T19:46:53.247Z,6.04
2022-11-27T19:49:21.244Z,5.89
2022-11-27T19:51:48.572Z,5.96
2022-11-27T19:54:19.030Z,5.89
2022-11-27T19:56:46.326Z,6.00
2022-11-27T19:59:13.523Z,5.84
2022-11-27T20:01:42.656Z,5.86
2022-11-27T20:04:11.041Z,5.92
2022-11-27T20:06:39.347Z,5.93
2022-11-27T20:09:07.148Z,5.96
2022-11-27T20:11:35.553Z,5.93
2022-11-27T20:14:06.285Z,5.97
2022-11-27T20:16:37.589Z,5.97
2022-11-27T20:19:05.921Z,5.85
2022-11-27T20:21:36.463Z,5.73
2022-11-27T20:24:03.749Z,5.75
2022-11-27T20:26:31.076Z,5.55
2022-11-27T20:28:59.963Z,5.40
2022-11-27T20:31:35.000Z,5.69
2022-11-27T20:34:04.123Z,5.61
2022-11-27T20:36:34.013Z,5.57
2022-11-27T20:39:01.834Z,5.35
2022-11-27T20:41:29.351Z,5.64
2022-11-27T20:43:58.732Z,5.63
2022-11-27T20:46:26.673Z,5.37
2022-11-27T20:48:54.551Z,5.56
2022-11-27T20:51:28.337Z,5.49
2022-11-27T20:53:57.735Z,5.47
2022-11-27T20:56:25.434Z,5.46
2022-11-27T20:58:52.468Z,5.46
2022-11-27T21:01:31.826Z,5.02
2022-11-27T21:04:02.970Z,5.46
2022-11-27T21:06:32.062Z,5.47
2022-11-27T21:09:01.457Z,5.39
2022-11-27T21:11:32.429Z,5.44
2022-11-27T21:14:10.661Z,5.39
2022-11-27T21:16:44.812Z,5.41
2022-11-27T21:19:25.232Z,5.44
2022-11-27T21:21:53.922Z,5.42
2022-11-27T21:24:23.661Z,5.39
2022-11-27T21:26:51.120Z,5.39
2022-11-27T21:29:18.544Z,5.34
2022-11-27T21:31:47.745Z,5.30
2022-11-27T21:34:15.976Z,5.29
2022-11-27T21:36:44.225Z,5.29
2022-11-27T21:39:13.307Z,5.38
2022-11-27T21:41:41.285Z,5.17
2022-11-27T21:44:08.356Z,5.41
2022-11-27T21:46:36.231Z,5.42
2022-11-27T21:49:05.632Z,5.34
2022-11-27T21:51:32.679Z,4.89
2022-11-27T21:54:06.828Z,5.32
2022-11-27T21:56:37.630Z,5.39
2022-11-27T21:59:05.452Z,5.41
2022-11-27T22:01:32.711Z,5.40
2022-11-27T22:04:00.022Z,5.36
2022-11-27T22:06:30.493Z,5.32
2022-11-27T22:08:58.896Z,5.30
2022-11-27T22:11:30.254Z,5.22
2022-11-27T22:14:00.041Z,5.21
2022-11-27T22:16:29.393Z,5.15
2022-11-27T22:18:58.711Z,4.97
2022-11-27T22:21:27.390Z,4.76
2022-11-27T22:23:55.181Z,4.90
2022-11-27T22:26:23.932Z,5.16
2022-11-27T22:28:52.348Z,5.19
2022-11-27T22:31:23.130Z,5.16
2022-11-27T22:33:50.761Z,5.14
2022-11-27T22:36:24.523Z,5.08
2022-11-27T22:38:54.388Z,5.24
2022-11-27T22:41:26.836Z,5.22
2022-11-27T22:43:54.204Z,5.19
2022-11-27T22:46:33.808Z,5.14
2022-11-27T22:49:06.388Z,5.27
2022-11-27T22:51:35.413Z,4.86
2022-11-27T22:54:03.875Z,5.24
2022-11-27T22:56:33.551Z,5.19
2022-11-27T22:59:30.676Z,5.17
2022-11-27T23:01:50.584Z,5.21
2022-11-27T23:04:17.615Z,5.19
2022-11-27T23:06:48.464Z,5.16
2022-11-27T23:09:18.717Z,4.81
2022-11-27T23:11:47.056Z,5.00
2022-11-27T23:14:14.158Z,5.04
2022-11-27T23:16:43.586Z,4.77
2022-11-27T23:19:12.066Z,4.79
2022-11-27T23:21:40.360Z,4.66
2022-11-27T23:24:10.814Z,4.91
2022-11-27T23:26:38.142Z,4.96
2022-11-27T23:29:10.313Z,4.68
2022-11-27T23:31:38.467Z,4.90
2022-11-27T23:34:11.007Z,4.60
2022-11-27T23:36:38.672Z,4.94
2022-11-27T23:39:07.831Z,4.94
2022-11-27T23:41:35.197Z,4.90
2022-11-27T23:44:02.992Z,4.89
2022-11-27T23:46:30.604Z,4.95
2022-11-27T23:48:59.927Z,4.72
2022-11-27T23:51:30.580Z,4.90
2022-11-27T23:53:58.582Z,4.94
2022-11-27T23:56:28.277Z,4.90
2022-11-27T23:58:56.440Z,4.94
